Terminal Aerodrome Forecast
Issued by NWS Billings, MT

Home | Current Version | Previous Version | Text Only | Print | Product List | Glossary On
Versions: 1 2 3 4 5 6 7 8 9 10 11 12 13 14 15 16 17 18 19 20 21 22 23 24 25 26 27 28 29
000
FTUS45 KBYZ 281120
TAFBIL
TAF
KBIL 281120Z 2812/2912 23011KT P6SM FEW100 BKN250
     FM281600 30011KT P6SM VCTS BKN080CB
     FM290000 36010KT P6SM VCTS SCT040CB BKN080
     FM290400 01009KT P6SM VCSH SCT025 BKN080
     FM290700 07007KT P6SM VCSH SCT015 BKN025=

USA.gov is the U.S. government's official web portal to all federal, state and local government web resources and services.